Flight Track Log - Related Links

Times and Time Zones

All times are in EDT time to prevent confusion due to time zone crossing. See the EGF4065 flight status page for this flight to view local times or setup timezone preferences in your user account.

Time Position Orientation Groundspeed Altitude Reporting Facility
EDT Latitude Longitude Course Direction KTS MPH feet Rate Location/Type
Tue 11:35:17 AM 41.9833 -87.9667 188° South 188 216 2,800  Level Chicago TRACON
Tue 11:36:17 AM 41.9333 -88.0167 217° Southwest 238 274 4,800 1,890 Climbing Chicago TRACON
Tue 11:37:00 AM 41.7163 -87.9587 180° South  Level Estimated
Tue 11:37:24 AM 41.8583 -88.0031 172° South 264 304 6,800  Level Chicago Center
Tue 11:38:00 AM 41.6279 -87.9759 192° South  Level Estimated
Tue 11:38:26 AM 41.7875 -87.9564 154° Southeast 279 321 8,900  Level Chicago Center
Tue 11:39:00 AM 41.5395 -87.9931 189° South  Level Estimated
Tue 11:39:28 AM 41.6872 -87.9542 179° South 312 359 11,200  Level Chicago Center
Tue 11:40:00 AM 41.4510 -88.0101 188° South  Level FlightAware Approximate
Tue 11:40:30 AM 41.5936 -87.9722 188° South 338 389 12,300  Level Chicago Center
Tue 11:41:32 AM 41.4914 -87.9933 189° South 366 421 13,800 1,500 Climbing Chicago Center
Tue 11:42:34 AM 41.3822 -88.0150 188° South 375 432 15,400 1,355 Climbing Chicago Center
Tue 11:43:36 AM 41.2739 -88.0367 189° South 385 443 16,600 774 Climbing Chicago Center
Tue 11:44:38 AM 41.1617 -88.0586 188° South 403 464 17,000 146 Climbing Chicago Center
Tue 11:45:39 AM 41.0444 -88.0825 189° South 423 487 16,900 -629 Descending Chicago Center
Tue 11:46:42 AM 40.9294 -88.1044 188° South 422 486 15,700 -1,258 Descending Chicago Center
Tue 11:47:43 AM 40.8133 -88.1275 189° South 423 487 14,300 -1,805 Descending Chicago Center
Tue 11:48:45 AM 40.6825 -88.1619 191° South 404 465 12,000 -1,597 Descending Chicago Center
Tue 11:49:47 AM 40.5867 -88.1992 196° South 367 422 11,000 -484 Descending Chicago Center
Tue 11:50:49 AM 40.4886 -88.2339 195° South 364 419 11,000 -242 Level Chicago Center
Tue 11:51:51 AM 40.3944 -88.2697 196° South 357 411 10,500 -1,113 Descending Chicago Center
Tue 11:52:53 AM 40.3167 -88.2911 192° South 301 346 8,700 -2,468 Descending Chicago Center
Tue 11:53:55 AM 40.2289 -88.3125 191° South 273 314 5,400 -3,194 Descending Chicago Center

Login

Don't have an account? Register now (free) for customized features, flight alerts, and more!